Time;durP1;ratioP1;P1;durP2;ratioP2;P2;SDS_P1;SDS_P2;PMS_P1;PMS_P2;Temp;Humidity;BMP_temperature;BMP_pressure;BME280_temperature;BME280_humidity;BME280_pressure;Samples;Min_cycle;Max_cycle;Signal;HPM_P1;HPM_P2
2022/11/11 00:00:06;;;;;;;10.73;6.22;;;;;;;;;;5081700;28;20176;-68
2022/11/11 00:02:31;;;;;;;17.60;7.00;;;;;;;;;;5074662;28;20673;-68
2022/11/11 00:04:57;;;;;;;15.55;6.40;;;;;;;;;;5082136;28;20183;-68
2022/11/11 00:07:22;;;;;;;13.93;6.80;;;;;;;;;;5080131;28;20719;-68
2022/11/11 00:09:47;;;;;;;13.15;6.07;;;;;;;;;;5084193;28;20176;-68
2022/11/11 00:12:13;;;;;;;12.75;6.22;;;;;;;;;;5090434;28;20557;-68
2022/11/11 00:14:38;;;;;;;13.30;6.18;;;;;;;;;;5086412;28;20172;-68
2022/11/11 00:25:16;;;;;;;14.40;7.03;;;;;;;;;;5091051;28;20187;-68
2022/11/11 00:27:42;;;;;;;16.00;6.78;;;;;;;;;;5081270;28;20196;-68
2022/11/11 00:30:08;;;;;;;15.23;6.72;;;;;;;;;;5081280;28;20191;-68
2022/11/11 00:32:33;;;;;;;16.75;6.70;;;;;;;;;;5084131;28;20243;-68
2022/11/11 00:37:44;;;;;;;15.05;6.90;;;;;;;;;;5083942;28;20187;-68
2022/11/11 00:40:11;;;;;;;14.88;7.13;;;;;;;;;;5074252;28;20600;-68
2022/11/11 00:42:36;;;;;;;17.40;7.72;;;;;;;;;;5080889;28;20181;-68
2022/11/11 00:45:03;;;;;;;22.13;7.82;;;;;;;;;;5079989;28;20405;-68
2022/11/11 00:52:59;;;;;;;17.23;7.32;;;;;;;;;;5083508;28;20206;-68
2022/11/11 00:55:24;;;;;;;17.65;7.20;;;;;;;;;;5083145;28;20177;-68
2022/11/11 00:57:49;;;;;;;16.15;7.85;;;;;;;;;;5080692;28;20200;-68
2022/11/11 01:00:15;;;;;;;16.73;7.18;;;;;;;;;;5089663;28;20179;-68
2022/11/11 01:02:40;;;;;;;16.55;7.88;;;;;;;;;;5080096;28;20187;-68
2022/11/11 01:05:06;;;;;;;15.85;7.80;;;;;;;;;;5073358;28;20187;-68
2022/11/11 01:07:31;;;;;;;17.73;7.65;;;;;;;;;;5072409;28;20208;-68
2022/11/11 01:09:57;;;;;;;17.95;7.80;;;;;;;;;;5075194;28;20575;-68
2022/11/11 01:12:22;;;;;;;19.17;8.30;;;;;;;;;;5079770;28;20195;-67
2022/11/11 01:14:47;;;;;;;10.98;7.30;;;;;;;;;;5071307;28;20177;-68
2022/11/11 01:17:13;;;;;;;14.43;8.13;;;;;;;;;;5095211;28;20244;-68
2022/11/11 01:19:38;;;;;;;16.90;8.07;;;;;;;;;;5084057;28;20176;-68
2022/11/11 01:22:03;;;;;;;15.50;8.52;;;;;;;;;;5088541;28;20702;-68
2022/11/11 01:24:29;;;;;;;15.38;8.23;;;;;;;;;;5072506;28;20646;-68
2022/11/11 01:26:54;;;;;;;17.52;8.52;;;;;;;;;;5081627;28;20267;-68
2022/11/11 01:29:19;;;;;;;18.92;8.50;;;;;;;;;;5084792;28;20179;-68
2022/11/11 01:31:44;;;;;;;14.57;7.72;;;;;;;;;;5079796;28;20224;-68
2022/11/11 01:34:10;;;;;;;16.05;7.45;;;;;;;;;;5080683;28;20187;-68
2022/11/11 01:36:35;;;;;;;16.38;7.57;;;;;;;;;;5084882;28;20330;-68
2022/11/11 01:39:01;;;;;;;13.50;7.72;;;;;;;;;;5079305;28;20538;-68
2022/11/11 01:41:32;;;;;;;16.20;7.72;;;;;;;;;;5073828;28;20684;-68
2022/11/11 01:43:58;;;;;;;18.23;8.57;;;;;;;;;;5079260;28;20184;-68
2022/11/11 01:46:27;;;;;;;17.67;7.53;;;;;;;;;;5081353;28;20511;-68
2022/11/11 01:52:00;;;;;;;16.88;9.20;;;;;;;;;;5069040;28;20195;-68
2022/11/11 01:54:31;;;;;;;16.13;9.10;;;;;;;;;;5079310;28;20234;-68
2022/11/11 01:57:09;;;;;;;19.35;10.23;;;;;;;;;;5077764;28;20192;-68
2022/11/11 01:59:37;;;;;;;18.90;9.57;;;;;;;;;;5073106;28;20188;-68
2022/11/11 02:02:11;;;;;;;31.52;10.90;;;;;;;;;;5074602;28;20180;-68
2022/11/11 02:07:22;;;;;;;16.70;9.77;;;;;;;;;;5074294;28;20571;-69
2022/11/11 02:09:50;;;;;;;22.98;11.15;;;;;;;;;;5080507;28;20286;-68
2022/11/11 02:14:59;;;;;;;20.88;11.32;;;;;;;;;;5078592;28;20222;-68
2022/11/11 02:17:27;;;;;;;24.75;11.48;;;;;;;;;;5078652;28;20172;-69
2022/11/11 02:20:00;;;;;;;19.13;11.23;;;;;;;;;;5085875;28;20176;-68
2022/11/11 02:22:33;;;;;;;21.77;11.93;;;;;;;;;;5073676;28;20580;-68
2022/11/11 02:25:00;;;;;;;19.70;11.63;;;;;;;;;;5087371;28;20176;-68
2022/11/11 02:27:28;;;;;;;23.17;13.13;;;;;;;;;;5076192;28;20217;-68
2022/11/11 02:29:55;;;;;;;26.17;13.45;;;;;;;;;;5069958;28;21022;-68
2022/11/11 02:32:21;;;;;;;22.48;12.80;;;;;;;;;;5075472;28;20328;-68
2022/11/11 02:34:46;;;;;;;22.10;12.60;;;;;;;;;;5077448;28;20275;-69
2022/11/11 02:37:13;;;;;;;23.92;14.18;;;;;;;;;;5084356;28;20199;-68
2022/11/11 02:39:46;;;;;;;25.92;14.82;;;;;;;;;;5075774;28;20181;-68
2022/11/11 02:42:14;;;;;;;26.50;13.90;;;;;;;;;;5080075;28;20263;-68
2022/11/11 02:44:40;;;;;;;20.00;13.13;;;;;;;;;;5076574;28;20177;-68
2022/11/11 02:47:05;;;;;;;30.15;15.00;;;;;;;;;;5079160;28;20696;-68
2022/11/11 02:49:30;;;;;;;27.17;15.95;;;;;;;;;;5083020;28;20668;-68
2022/11/11 02:51:56;;;;;;;26.23;14.80;;;;;;;;;;5076800;28;20176;-68
2022/11/11 02:54:21;;;;;;;27.10;15.55;;;;;;;;;;5075079;28;20180;-68
2022/11/11 02:59:31;;;;;;;31.25;17.45;;;;;;;;;;5073805;28;20212;-68
2022/11/11 03:01:56;;;;;;;25.85;15.38;;;;;;;;;;5081986;28;20295;-68
2022/11/11 03:04:21;;;;;;;27.98;16.15;;;;;;;;;;5068688;28;20192;-69
2022/11/11 03:06:47;;;;;;;22.83;15.85;;;;;;;;;;5083779;28;20722;-68
2022/11/11 03:09:12;;;;;;;30.40;15.77;;;;;;;;;;5082117;28;20591;-68
2022/11/11 03:11:38;;;;;;;31.17;17.33;;;;;;;;;;5077813;28;20498;-68
2022/11/11 03:14:03;;;;;;;30.92;16.20;;;;;;;;;;5073632;28;20275;-68
2022/11/11 03:19:13;;;;;;;29.85;16.27;;;;;;;;;;5072458;28;20183;-68
2022/11/11 03:21:38;;;;;;;31.02;16.88;;;;;;;;;;5082264;28;20188;-68
2022/11/11 03:24:04;;;;;;;29.85;17.02;;;;;;;;;;5078054;28;20271;-68
2022/11/11 03:26:30;;;;;;;30.98;17.15;;;;;;;;;;5074506;28;20259;-68
2022/11/11 03:28:55;;;;;;;27.92;17.55;;;;;;;;;;5081097;28;20200;-69
2022/11/11 03:31:20;;;;;;;29.90;17.05;;;;;;;;;;5074215;28;20204;-68
2022/11/11 03:33:46;;;;;;;30.45;17.70;;;;;;;;;;5067295;28;20234;-68
2022/11/11 03:36:11;;;;;;;28.63;16.48;;;;;;;;;;5081930;28;20201;-68
2022/11/11 03:38:36;;;;;;;27.00;17.10;;;;;;;;;;5074741;28;20180;-68
2022/11/11 03:41:02;;;;;;;28.65;17.20;;;;;;;;;;5074540;28;20546;-68
2022/11/11 03:43:29;;;;;;;33.58;17.95;;;;;;;;;;5070547;28;20717;-68
2022/11/11 03:45:57;;;;;;;32.17;16.42;;;;;;;;;;5079482;28;20622;-68
2022/11/11 03:48:23;;;;;;;29.90;17.17;;;;;;;;;;5077760;28;20207;-68
2022/11/11 03:50:49;;;;;;;30.33;16.55;;;;;;;;;;5086879;28;20188;-68
2022/11/11 03:53:16;;;;;;;28.35;16.95;;;;;;;;;;5079879;28;20519;-68
2022/11/11 03:55:42;;;;;;;22.85;15.70;;;;;;;;;;5078562;28;20185;-68
2022/11/11 03:58:07;;;;;;;32.92;16.63;;;;;;;;;;5079261;28;20175;-68
2022/11/11 04:00:34;;;;;;;27.38;17.17;;;;;;;;;;5075345;28;20644;-68
2022/11/11 04:11:25;;;;;;;25.17;16.05;;;;;;;;;;5084037;28;20257;-68
2022/11/11 04:16:39;;;;;;;34.50;16.92;;;;;;;;;;5078604;28;20576;-68
2022/11/11 04:21:48;;;;;;;29.20;16.50;;;;;;;;;;5069866;28;20662;-69
2022/11/11 04:27:02;;;;;;;28.00;16.60;;;;;;;;;;5070157;28;20187;-68
2022/11/11 04:29:28;;;;;;;25.52;16.17;;;;;;;;;;5075899;28;20180;-69
2022/11/11 04:34:51;;;;;;;24.13;15.88;;;;;;;;;;5068707;28;20261;-68
2022/11/11 04:37:17;;;;;;;28.17;16.48;;;;;;;;;;5071021;28;20683;-68
2022/11/11 04:42:27;;;;;;;29.83;16.73;;;;;;;;;;5084172;28;20178;-68
2022/11/11 04:47:37;;;;;;;27.95;16.63;;;;;;;;;;5076790;28;20318;-69
2022/11/11 04:50:03;;;;;;;30.48;16.77;;;;;;;;;;5087633;28;20172;-68
2022/11/11 04:52:30;;;;;;;30.13;16.77;;;;;;;;;;5077925;28;20699;-68
2022/11/11 04:57:46;;;;;;;30.75;16.60;;;;;;;;;;5086412;28;20579;-68
2022/11/11 05:00:14;;;;;;;29.35;17.27;;;;;;;;;;5079014;28;20553;-69
2022/11/11 05:05:25;;;;;;;32.75;16.23;;;;;;;;;;5079072;28;20599;-69
2022/11/11 05:10:35;;;;;;;24.40;15.48;;;;;;;;;;5073157;28;20257;-67
2022/11/11 05:21:21;;;;;;;23.38;16.20;;;;;;;;;;5076837;28;20210;-67
2022/11/11 05:26:32;;;;;;;26.83;15.73;;;;;;;;;;5075269;28;20257;-67
2022/11/11 05:28:57;;;;;;;27.98;16.73;;;;;;;;;;5072880;28;20598;-67
2022/11/11 05:31:22;;;;;;;26.52;16.25;;;;;;;;;;5069745;28;20180;-67
2022/11/11 05:33:48;;;;;;;31.35;17.10;;;;;;;;;;5072890;28;20169;-67
2022/11/11 05:36:13;;;;;;;29.90;16.30;;;;;;;;;;5084456;28;20176;-68
2022/11/11 05:38:38;;;;;;;24.83;15.77;;;;;;;;;;5080393;28;20177;-68
2022/11/11 05:41:04;;;;;;;24.55;15.52;;;;;;;;;;5071963;28;20242;-68
2022/11/11 05:43:30;;;;;;;23.05;15.73;;;;;;;;;;5073394;28;20279;-68
2022/11/11 05:45:55;;;;;;;29.00;15.50;;;;;;;;;;5077779;28;20596;-68
2022/11/11 05:48:20;;;;;;;25.02;15.57;;;;;;;;;;5070573;28;20597;-68
2022/11/11 05:50:46;;;;;;;28.52;15.73;;;;;;;;;;5072290;28;20177;-68
2022/11/11 05:53:11;;;;;;;28.15;15.65;;;;;;;;;;5075703;28;20183;-68
2022/11/11 05:55:36;;;;;;;28.27;15.82;;;;;;;;;;5071308;28;21504;-68
2022/11/11 05:58:02;;;;;;;25.23;15.88;;;;;;;;;;5074576;28;20172;-68
2022/11/11 06:00:27;;;;;;;24.73;15.95;;;;;;;;;;5079959;28;20173;-68
2022/11/11 06:02:53;;;;;;;31.95;17.73;;;;;;;;;;5085777;28;20176;-68
2022/11/11 06:05:18;;;;;;;25.92;16.70;;;;;;;;;;5079020;28;20188;-68
2022/11/11 06:07:43;;;;;;;26.45;17.20;;;;;;;;;;5074292;28;20231;-68
2022/11/11 06:13:09;;;;;;;30.13;16.42;;;;;;;;;;5082487;28;20210;-68
2022/11/11 06:15:38;;;;;;;30.60;16.60;;;;;;;;;;5083417;28;20452;-68
2022/11/11 06:18:05;;;;;;;30.98;17.58;;;;;;;;;;5079936;28;20266;-68
2022/11/11 06:20:31;;;;;;;27.38;17.58;;;;;;;;;;5075281;28;20180;-68
2022/11/11 06:22:57;;;;;;;31.92;17.75;;;;;;;;;;5080149;28;20187;-69
2022/11/11 06:28:15;;;;;;;31.40;19.23;;;;;;;;;;5069405;28;20299;-68
2022/11/11 06:30:41;;;;;;;30.02;19.80;;;;;;;;;;5068908;28;20226;-69
2022/11/11 06:33:07;;;;;;;36.80;20.38;;;;;;;;;;5075348;28;20602;-68
2022/11/11 06:35:36;;;;;;;29.63;18.58;;;;;;;;;;5070677;28;20180;-68
2022/11/11 06:38:03;;;;;;;31.48;20.65;;;;;;;;;;5075757;28;20563;-68
2022/11/11 06:40:29;;;;;;;33.95;20.20;;;;;;;;;;5067601;28;20621;-68
2022/11/11 06:42:56;;;;;;;33.85;20.38;;;;;;;;;;5070461;28;20751;-68
2022/11/11 06:45:25;;;;;;;31.10;18.75;;;;;;;;;;5068622;28;20168;-68
2022/11/11 06:47:50;;;;;;;30.83;19.38;;;;;;;;;;5072959;28;20661;-68
2022/11/11 06:50:16;;;;;;;31.40;20.38;;;;;;;;;;5083632;28;20258;-68
2022/11/11 06:52:42;;;;;;;33.55;20.13;;;;;;;;;;5078349;28;20266;-68
2022/11/11 06:55:24;;;;;;;32.85;20.67;;;;;;;;;;4964490;28;10001244;-68
2022/11/11 06:57:49;;;;;;;35.30;20.83;;;;;;;;;;5077469;28;20380;-68
2022/11/11 07:00:15;;;;;;;33.95;20.70;;;;;;;;;;5080033;28;20180;-68
2022/11/11 07:02:40;;;;;;;35.83;21.13;;;;;;;;;;5068521;28;20627;-68
2022/11/11 07:05:06;;;;;;;36.88;21.52;;;;;;;;;;5071647;28;20184;-68
2022/11/11 07:07:31;;;;;;;37.97;22.45;;;;;;;;;;5072975;28;20269;-68
2022/11/11 07:09:57;;;;;;;46.15;24.40;;;;;;;;;;5065999;28;20234;-68
2022/11/11 07:12:22;;;;;;;40.25;23.50;;;;;;;;;;5065784;28;20403;-69
2022/11/11 07:14:48;;;;;;;42.50;25.20;;;;;;;;;;5084168;28;20182;-69
2022/11/11 07:17:13;;;;;;;46.25;26.52;;;;;;;;;;5078329;28;20187;-68
2022/11/11 07:19:38;;;;;;;48.67;26.48;;;;;;;;;;5071962;28;20176;-68
2022/11/11 07:22:04;;;;;;;46.55;26.27;;;;;;;;;;5072781;28;20184;-68
2022/11/11 07:24:29;;;;;;;46.42;25.88;;;;;;;;;;5069789;28;20184;-68
2022/11/11 07:26:55;;;;;;;45.78;25.38;;;;;;;;;;5067366;28;20824;-69
2022/11/11 07:29:20;;;;;;;41.95;24.05;;;;;;;;;;5076144;28;20256;-68
2022/11/11 07:31:45;;;;;;;43.42;24.13;;;;;;;;;;5066109;28;20608;-68
2022/11/11 07:34:10;;;;;;;47.15;24.33;;;;;;;;;;5069342;28;20185;-68
2022/11/11 07:36:36;;;;;;;41.90;22.60;;;;;;;;;;5072684;28;20226;-68
2022/11/11 07:39:01;;;;;;;42.40;22.95;;;;;;;;;;5068813;28;20688;-68
2022/11/11 07:41:26;;;;;;;35.70;20.75;;;;;;;;;;5070265;28;20218;-68
2022/11/11 07:43:52;;;;;;;37.30;20.58;;;;;;;;;;5069939;28;20836;-68
2022/11/11 07:46:17;;;;;;;33.17;18.67;;;;;;;;;;5066388;28;20177;-68
2022/11/11 07:48:43;;;;;;;37.70;19.92;;;;;;;;;;5072704;28;20200;-68
2022/11/11 07:51:08;;;;;;;31.98;19.30;;;;;;;;;;5071798;28;20647;-68
2022/11/11 07:53:34;;;;;;;30.58;19.33;;;;;;;;;;5070277;28;20215;-68
2022/11/11 07:55:59;;;;;;;30.88;18.52;;;;;;;;;;5082122;28;20188;-68
2022/11/11 07:58:24;;;;;;;29.45;17.00;;;;;;;;;;5077734;28;20267;-68
2022/11/11 08:00:50;;;;;;;34.45;18.30;;;;;;;;;;5073694;28;20203;-68
2022/11/11 08:03:16;;;;;;;28.80;17.98;;;;;;;;;;5073478;28;20251;-68
2022/11/11 08:05:41;;;;;;;29.65;17.70;;;;;;;;;;5071100;28;20610;-68
2022/11/11 08:08:08;;;;;;;27.83;17.02;;;;;;;;;;5067325;28;20684;-68
2022/11/11 08:10:34;;;;;;;29.83;17.33;;;;;;;;;;5070317;28;20210;-68
2022/11/11 08:15:44;;;;;;;25.10;15.73;;;;;;;;;;5073946;28;20670;-68
2022/11/11 08:18:09;;;;;;;22.48;14.93;;;;;;;;;;5072114;28;20252;-68
2022/11/11 08:20:35;;;;;;;22.67;13.27;;;;;;;;;;5072471;28;20198;-67
2022/11/11 08:23:03;;;;;;;21.38;12.57;;;;;;;;;;5073634;28;20181;-68
2022/11/11 08:25:29;;;;;;;18.88;12.07;;;;;;;;;;5080288;28;20192;-67
2022/11/11 08:28:02;;;;;;;20.05;12.45;;;;;;;;;;5075077;28;20664;-68
2022/11/11 08:30:28;;;;;;;17.35;11.27;;;;;;;;;;5075862;28;20655;-68
2022/11/11 08:33:01;;;;;;;18.15;11.07;;;;;;;;;;5074952;28;20228;-68
2022/11/11 08:35:27;;;;;;;19.98;10.82;;;;;;;;;;5078282;28;20662;-68
2022/11/11 08:37:53;;;;;;;19.75;10.88;;;;;;;;;;5070553;28;20272;-67
2022/11/11 08:40:19;;;;;;;19.77;11.00;;;;;;;;;;5072621;28;20173;-68
2022/11/11 08:42:44;;;;;;;16.50;10.27;;;;;;;;;;5075047;28;20651;-67
2022/11/11 08:45:10;;;;;;;17.52;9.50;;;;;;;;;;5082073;28;20198;-68
2022/11/11 08:47:36;;;;;;;15.13;9.88;;;;;;;;;;5070602;28;20238;-68
2022/11/11 08:50:04;;;;;;;12.77;8.90;;;;;;;;;;5076078;28;20258;-68
2022/11/11 08:52:30;;;;;;;15.80;8.85;;;;;;;;;;5075723;28;20183;-68
2022/11/11 08:54:55;;;;;;;17.50;8.68;;;;;;;;;;5076486;28;20207;-67
2022/11/11 08:57:21;;;;;;;18.25;8.98;;;;;;;;;;5077705;28;20218;-67
2022/11/11 08:59:46;;;;;;;12.57;8.52;;;;;;;;;;5073735;28;20180;-68
2022/11/11 09:02:12;;;;;;;12.32;8.35;;;;;;;;;;5070823;28;20192;-67
2022/11/11 09:04:40;;;;;;;13.90;8.45;;;;;;;;;;5074254;28;20242;-68
2022/11/11 09:07:07;;;;;;;13.88;8.07;;;;;;;;;;5075008;28;20180;-67
2022/11/11 09:09:34;;;;;;;14.05;8.02;;;;;;;;;;5075582;28;20268;-68
2022/11/11 09:11:59;;;;;;;12.60;8.25;;;;;;;;;;5073204;28;20181;-68
2022/11/11 09:14:24;;;;;;;11.70;8.15;;;;;;;;;;5072203;28;20723;-67
2022/11/11 09:16:50;;;;;;;18.13;8.23;;;;;;;;;;5084470;28;20181;-68
2022/11/11 09:19:15;;;;;;;12.35;8.23;;;;;;;;;;5076312;28;20176;-68
2022/11/11 09:21:40;;;;;;;12.13;8.23;;;;;;;;;;5084990;28;20181;-68
2022/11/11 09:24:06;;;;;;;14.35;8.13;;;;;;;;;;5072291;28;20177;-68
2022/11/11 09:26:31;;;;;;;13.13;7.97;;;;;;;;;;5074029;28;20499;-68
2022/11/11 09:28:56;;;;;;;13.85;8.00;;;;;;;;;;5074068;28;20200;-68
2022/11/11 09:31:22;;;;;;;14.07;7.28;;;;;;;;;;5083703;28;20179;-68
2022/11/11 09:33:52;;;;;;;15.00;7.80;;;;;;;;;;5083287;28;20187;-69
2022/11/11 09:36:18;;;;;;;11.77;7.40;;;;;;;;;;5081456;28;20181;-68
2022/11/11 09:38:43;;;;;;;11.35;7.25;;;;;;;;;;5071491;28;20226;-69
2022/11/11 09:41:31;;;;;;;15.75;8.10;;;;;;;;;;5070889;28;20181;-68
2022/11/11 09:43:59;;;;;;;13.23;7.47;;;;;;;;;;5074054;28;20180;-68
2022/11/11 09:46:48;;;;;;;11.73;7.15;;;;;;;;;;5076255;28;20423;-69
2022/11/11 09:49:35;;;;;;;11.68;6.78;;;;;;;;;;5075509;28;20196;-68
2022/11/11 09:52:07;;;;;;;12.35;7.63;;;;;;;;;;5072621;28;20225;-68
2022/11/11 09:55:00;;;;;;;19.23;7.43;;;;;;;;;;5068784;28;20589;-68
2022/11/11 09:57:38;;;;;;;12.68;7.40;;;;;;;;;;5075530;28;20176;-68
2022/11/11 10:00:16;;;;;;;10.40;6.85;;;;;;;;;;5074743;28;20176;-68
2022/11/11 10:02:56;;;;;;;10.57;6.40;;;;;;;;;;5074802;28;20188;-68
2022/11/11 10:05:31;;;;;;;11.00;6.72;;;;;;;;;;5074561;28;20185;-68
2022/11/11 10:08:02;;;;;;;12.15;6.75;;;;;;;;;;5074181;28;20196;-68
2022/11/11 10:10:42;;;;;;;12.23;6.82;;;;;;;;;;5075506;28;20546;-68
2022/11/11 10:13:26;;;;;;;10.73;5.88;;;;;;;;;;5072173;28;20560;-68
2022/11/11 10:16:00;;;;;;;10.35;6.47;;;;;;;;;;5077250;28;20184;-69
2022/11/11 10:18:44;;;;;;;11.48;6.53;;;;;;;;;;5071498;28;20200;-68
2022/11/11 10:21:15;;;;;;;10.90;6.38;;;;;;;;;;5080932;28;20184;-69
2022/11/11 10:23:45;;;;;;;11.23;6.22;;;;;;;;;;5073447;28;20188;-68
2022/11/11 10:26:40;;;;;;;12.60;6.72;;;;;;;;;;5076756;28;20180;-68
2022/11/11 10:29:13;;;;;;;10.43;5.90;;;;;;;;;;5073107;28;20188;-68
2022/11/11 10:31:41;;;;;;;10.63;6.35;;;;;;;;;;5078108;28;20196;-68
2022/11/11 10:34:11;;;;;;;10.63;5.90;;;;;;;;;;5087989;28;20184;-68
2022/11/11 10:36:45;;;;;;;12.60;6.03;;;;;;;;;;5084658;28;20180;-68
2022/11/11 10:39:16;;;;;;;9.25;6.00;;;;;;;;;;5072402;28;20259;-68
2022/11/11 10:41:50;;;;;;;11.55;6.43;;;;;;;;;;5074938;28;20188;-68
2022/11/11 10:44:26;;;;;;;11.38;5.53;;;;;;;;;;5070086;28;20180;-68
2022/11/11 10:47:13;;;;;;;9.60;5.50;;;;;;;;;;5077903;28;20187;-68
2022/11/11 10:50:04;;;;;;;9.85;5.55;;;;;;;;;;5077166;28;20185;-68
2022/11/11 10:52:41;;;;;;;9.65;5.60;;;;;;;;;;5074789;28;20284;-68
2022/11/11 10:55:13;;;;;;;10.05;5.50;;;;;;;;;;5084122;28;20597;-68
2022/11/11 10:57:54;;;;;;;13.60;5.72;;;;;;;;;;5070432;28;20180;-68
2022/11/11 11:00:20;;;;;;;7.82;5.35;;;;;;;;;;5081216;28;20297;-68
2022/11/11 11:03:01;;;;;;;11.13;4.97;;;;;;;;;;5085753;28;20210;-68
2022/11/11 11:05:33;;;;;;;7.38;5.13;;;;;;;;;;5079318;28;20188;-69
2022/11/11 11:08:09;;;;;;;10.05;5.22;;;;;;;;;;5087489;28;20210;-69
2022/11/11 11:10:40;;;;;;;9.18;5.05;;;;;;;;;;5079939;28;20230;-69
2022/11/11 11:13:14;;;;;;;9.02;5.03;;;;;;;;;;5069866;28;20386;-69
2022/11/11 11:15:48;;;;;;;8.60;4.60;;;;;;;;;;5078262;28;20560;-69
2022/11/11 11:18:15;;;;;;;6.90;4.70;;;;;;;;;;5070602;28;20255;-69
2022/11/11 11:21:04;;;;;;;10.82;5.32;;;;;;;;;;5070468;28;20248;-69
2022/11/11 11:23:43;;;;;;;10.23;4.75;;;;;;;;;;5077028;28;20184;-68
2022/11/11 11:26:11;;;;;;;8.80;5.00;;;;;;;;;;5077810;28;20180;-68
2022/11/11 11:29:02;;;;;;;7.55;4.85;;;;;;;;;;5085035;28;20187;-69
2022/11/11 11:31:39;;;;;;;7.35;5.07;;;;;;;;;;5083082;28;20181;-69
2022/11/11 11:34:05;;;;;;;8.38;4.72;;;;;;;;;;5080071;28;20190;-66
2022/11/11 11:36:31;;;;;;;7.07;5.40;;;;;;;;;;5072617;28;20188;-66
2022/11/11 11:38:56;;;;;;;9.70;5.20;;;;;;;;;;5077298;28;20176;-69
2022/11/11 11:41:39;;;;;;;10.48;5.28;;;;;;;;;;5080591;28;20220;-68
2022/11/11 11:44:27;;;;;;;7.22;4.88;;;;;;;;;;5068288;28;20172;-69
2022/11/11 11:47:04;;;;;;;11.27;5.40;;;;;;;;;;5067845;28;20546;-69
2022/11/11 11:49:55;;;;;;;10.77;5.38;;;;;;;;;;5068693;28;20209;-69
2022/11/11 11:52:36;;;;;;;11.20;5.20;;;;;;;;;;5069924;28;20701;-68
2022/11/11 11:55:31;;;;;;;9.60;5.03;;;;;;;;;;5070477;28;20219;-68
2022/11/11 11:58:19;;;;;;;8.50;4.55;;;;;;;;;;5079597;28;20172;-68
2022/11/11 12:00:56;;;;;;;9.73;5.07;;;;;;;;;;5076342;28;20187;-68
2022/11/11 12:03:42;;;;;;;9.70;4.95;;;;;;;;;;5083130;28;20168;-68
2022/11/11 12:06:34;;;;;;;13.95;4.70;;;;;;;;;;5081035;28;20269;-68
2022/11/11 12:09:25;;;;;;;8.98;4.35;;;;;;;;;;5082779;28;20811;-69
2022/11/11 12:12:14;;;;;;;10.65;4.28;;;;;;;;;;5037892;28;20192;-68
2022/11/11 12:15:20;;;;;;;6.55;4.75;;;;;;;;;;5067760;28;20183;-68
2022/11/11 12:18:09;;;;;;;7.97;4.38;;;;;;;;;;5025475;28;20933;-68
2022/11/11 12:20:45;;;;;;;7.50;3.80;;;;;;;;;;5070369;28;20188;-68
2022/11/11 12:23:55;;;;;;;9.43;4.32;;;;;;;;;;5087726;28;20230;-68
2022/11/11 12:26:24;;;;;;;6.13;4.00;;;;;;;;;;5038445;28;20196;-68
2022/11/11 12:29:16;;;;;;;7.93;3.88;;;;;;;;;;5067628;28;20204;-68
2022/11/11 12:31:57;;;;;;;8.50;4.55;;;;;;;;;;5078286;28;20240;-68
2022/11/11 12:35:11;;;;;;;7.18;3.65;;;;;;;;;;5071913;28;20556;-68
2022/11/11 12:38:00;;;;;;;8.30;3.78;;;;;;;;;;5058754;28;20274;-68
2022/11/11 12:41:17;;;;;;;10.27;4.10;;;;;;;;;;5067903;28;20556;-68
2022/11/11 12:43:53;;;;;;;7.93;4.45;;;;;;;;;;5033643;28;20535;-68
2022/11/11 12:46:32;;;;;;;8.15;4.32;;;;;;;;;;5079091;28;20654;-68
2022/11/11 12:49:10;;;;;;;7.38;3.80;;;;;;;;;;5076036;28;20199;-68
2022/11/11 12:51:53;;;;;;;6.90;4.00;;;;;;;;;;5080657;28;20487;-68
2022/11/11 12:54:30;;;;;;;8.38;3.72;;;;;;;;;;5087448;28;20175;-69
2022/11/11 12:57:24;;;;;;;8.82;4.10;;;;;;;;;;5072791;28;20287;-69
2022/11/11 12:59:55;;;;;;;7.47;3.55;;;;;;;;;;5068367;28;20183;-68
2022/11/11 13:02:52;;;;;;;6.88;3.72;;;;;;;;;;5084221;28;20181;-68
2022/11/11 13:05:33;;;;;;;7.10;3.70;;;;;;;;;;5078711;28;20180;-68
2022/11/11 13:08:07;;;;;;;8.45;3.75;;;;;;;;;;5072647;28;20200;-68
2022/11/11 13:10:54;;;;;;;9.30;3.97;;;;;;;;;;5090684;28;20252;-68
2022/11/11 13:13:44;;;;;;;9.98;3.65;;;;;;;;;;5073939;28;20179;-68
2022/11/11 13:16:09;;;;;;;6.85;4.13;;;;;;;;;;5090469;28;20188;-68
2022/11/11 13:18:47;;;;;;;6.18;3.60;;;;;;;;;;5070129;28;20192;-68
2022/11/11 13:21:16;;;;;;;9.07;3.50;;;;;;;;;;5083577;28;20176;-68
2022/11/11 13:23:42;;;;;;;12.02;3.60;;;;;;;;;;5080224;28;20173;-68
2022/11/11 13:26:22;;;;;;;9.13;3.55;;;;;;;;;;5085023;28;20597;-68
2022/11/11 13:28:50;;;;;;;8.02;3.47;;;;;;;;;;5081392;28;20199;-69
2022/11/11 13:31:15;;;;;;;9.02;3.60;;;;;;;;;;5081457;28;20211;-68
2022/11/11 13:33:48;;;;;;;7.70;3.40;;;;;;;;;;5090400;28;20313;-68
2022/11/11 13:36:16;;;;;;;7.00;3.67;;;;;;;;;;5088409;28;20180;-68
2022/11/11 13:38:51;;;;;;;7.45;3.60;;;;;;;;;;5070026;28;20175;-68
2022/11/11 13:41:27;;;;;;;9.43;3.22;;;;;;;;;;5077969;28;20584;-68
2022/11/11 13:43:55;;;;;;;6.65;2.95;;;;;;;;;;5081249;28;20183;-68
2022/11/11 13:46:27;;;;;;;5.15;3.25;;;;;;;;;;5082560;28;20274;-68
2022/11/11 13:48:54;;;;;;;11.70;3.50;;;;;;;;;;5083145;28;20203;-68
2022/11/11 13:51:30;;;;;;;7.57;3.33;;;;;;;;;;5087479;28;20188;-68
2022/11/11 13:53:56;;;;;;;9.60;3.30;;;;;;;;;;5077687;28;20260;-68
2022/11/11 13:56:38;;;;;;;6.22;3.17;;;;;;;;;;5084618;28;20181;-71
2022/11/11 13:59:04;;;;;;;6.55;2.83;;;;;;;;;;5069898;28;20180;-69
2022/11/11 14:01:36;;;;;;;7.63;3.65;;;;;;;;;;5077813;28;20195;-68
2022/11/11 14:04:04;;;;;;;8.55;3.47;;;;;;;;;;5076846;28;20270;-69
2022/11/11 14:06:32;;;;;;;6.68;3.22;;;;;;;;;;5076008;28;20185;-68
2022/11/11 14:08:58;;;;;;;8.65;3.22;;;;;;;;;;5069802;28;20205;-68
2022/11/11 14:11:23;;;;;;;6.10;3.65;;;;;;;;;;5078269;28;20195;-68
2022/11/11 14:13:50;;;;;;;9.48;3.15;;;;;;;;;;5078448;28;20280;-68
2022/11/11 14:16:34;;;;;;;9.93;4.43;;;;;;;;;;5074972;28;20225;-68
2022/11/11 14:19:11;;;;;;;11.65;3.55;;;;;;;;;;5080677;28;20191;-68
2022/11/11 14:21:53;;;;;;;9.40;4.18;;;;;;;;;;5088785;28;20316;-68
2022/11/11 14:24:40;;;;;;;8.55;3.92;;;;;;;;;;5075244;28;20192;-68
2022/11/11 14:27:08;;;;;;;12.00;3.35;;;;;;;;;;5075966;28;20340;-68
2022/11/11 14:29:38;;;;;;;5.93;3.08;;;;;;;;;;5087574;28;20666;-68
2022/11/11 14:32:13;;;;;;;10.43;4.22;;;;;;;;;;5081180;28;20224;-68
2022/11/11 14:35:10;;;;;;;8.60;6.05;;;;;;;;;;5087126;28;20179;-68
2022/11/11 14:38:11;;;;;;;6.55;2.88;;;;;;;;;;5086554;28;20168;-68
2022/11/11 14:40:36;;;;;;;5.22;3.20;;;;;;;;;;5080157;28;20283;-68
2022/11/11 14:43:31;;;;;;;10.13;3.63;;;;;;;;;;5075694;28;20604;-68
2022/11/11 14:46:00;;;;;;;4.55;3.08;;;;;;;;;;5075313;28;20177;-68
2022/11/11 14:48:48;;;;;;;8.88;3.67;;;;;;;;;;5087653;28;20600;-68
2022/11/11 14:52:09;;;;;;;6.20;3.25;;;;;;;;;;5083035;28;20206;-68
2022/11/11 14:54:52;;;;;;;12.45;3.40;;;;;;;;;;5043840;28;20253;-68
2022/11/11 14:57:29;;;;;;;6.18;3.88;;;;;;;;;;5085592;28;20628;-68
2022/11/11 14:59:55;;;;;;;6.07;3.28;;;;;;;;;;5076899;28;20191;-68
2022/11/11 15:02:25;;;;;;;6.90;3.25;;;;;;;;;;5080632;28;20195;-68
2022/11/11 15:04:50;;;;;;;6.60;3.08;;;;;;;;;;5074502;28;20183;-68
2022/11/11 15:08:02;;;;;;;7.55;3.10;;;;;;;;;;5088879;28;20592;-68
2022/11/11 15:10:35;;;;;;;8.15;3.22;;;;;;;;;;5062915;28;20197;-68
2022/11/11 15:13:06;;;;;;;7.57;2.83;;;;;;;;;;5074724;28;20195;-68
2022/11/11 15:15:46;;;;;;;7.35;2.88;;;;;;;;;;5078587;28;20198;-68
2022/11/11 15:18:27;;;;;;;7.18;3.50;;;;;;;;;;5079984;28;20244;-68
2022/11/11 15:21:13;;;;;;;6.15;2.90;;;;;;;;;;5071531;28;20188;-68
2022/11/11 15:23:56;;;;;;;7.70;3.63;;;;;;;;;;5073034;28;20299;-68
2022/11/11 15:26:39;;;;;;;7.25;3.03;;;;;;;;;;5069696;28;20188;-68
2022/11/11 15:29:26;;;;;;;8.40;3.17;;;;;;;;;;5081435;28;20192;-68
2022/11/11 15:32:00;;;;;;;5.90;2.92;;;;;;;;;;5074106;28;20243;-68
2022/11/11 15:34:38;;;;;;;7.38;3.17;;;;;;;;;;5071825;28;20184;-68
2022/11/11 15:37:09;;;;;;;6.22;3.70;;;;;;;;;;5067178;28;20185;-68
2022/11/11 15:39:46;;;;;;;7.95;3.75;;;;;;;;;;5065415;28;20605;-68
2022/11/11 15:42:37;;;;;;;9.32;3.67;;;;;;;;;;5070711;28;20198;-68
2022/11/11 15:45:25;;;;;;;7.53;3.75;;;;;;;;;;5074644;28;20571;-68
2022/11/11 15:47:52;;;;;;;7.05;3.63;;;;;;;;;;5060409;28;20229;-68
2022/11/11 15:50:35;;;;;;;6.53;3.80;;;;;;;;;;5070563;28;20229;-68
2022/11/11 15:53:01;;;;;;;6.75;3.60;;;;;;;;;;5071441;28;20195;-68
2022/11/11 15:55:30;;;;;;;9.38;4.20;;;;;;;;;;5065576;28;20396;-68
2022/11/11 15:58:09;;;;;;;6.53;3.45;;;;;;;;;;5070967;28;20239;-68
2022/11/11 16:00:34;;;;;;;7.70;3.95;;;;;;;;;;5072338;28;20691;-68
2022/11/11 16:03:00;;;;;;;9.43;4.15;;;;;;;;;;5066012;28;20373;-68
2022/11/11 16:05:27;;;;;;;11.68;4.65;;;;;;;;;;5066667;28;20194;-68
2022/11/11 16:07:56;;;;;;;6.72;4.07;;;;;;;;;;5065185;28;20545;-68
2022/11/11 16:10:34;;;;;;;8.05;4.57;;;;;;;;;;5066982;28;20651;-67
2022/11/11 16:13:34;;;;;;;8.85;4.47;;;;;;;;;;5075330;28;20175;-68
2022/11/11 16:16:04;;;;;;;7.22;4.20;;;;;;;;;;5073802;28;20184;-68